createdAt,value
2022-09-01T00:01:56.069Z,8.87
2022-09-01T00:04:03.130Z,11.63
2022-09-01T00:06:11.698Z,14.80
2022-09-01T00:08:16.329Z,14.08
2022-09-01T00:10:21.692Z,11.33
2022-09-01T00:12:26.440Z,14.86
2022-09-01T00:14:32.518Z,14.94
2022-09-01T00:16:35.567Z,14.99
2022-09-01T00:18:38.410Z,13.80
2022-09-01T00:20:41.427Z,14.68
2022-09-01T00:22:44.486Z,14.35
2022-09-01T00:24:47.789Z,13.18
2022-09-01T00:26:50.643Z,14.89
2022-09-01T00:28:54.990Z,14.60
2022-09-01T00:30:58.706Z,14.82
2022-09-01T00:33:02.499Z,7.74
2022-09-01T00:35:08.762Z,13.30
2022-09-01T00:37:11.859Z,13.16
2022-09-01T00:39:15.278Z,14.33
2022-09-01T00:41:20.255Z,13.94
2022-09-01T00:43:26.198Z,13.91
2022-09-01T00:45:31.101Z,15.12
2022-09-01T00:47:40.071Z,14.70
2022-09-01T00:49:46.448Z,14.25
2022-09-01T00:51:53.932Z,14.22
2022-09-01T00:53:58.160Z,15.15
2022-09-01T00:56:01.611Z,13.50
2022-09-01T00:58:07.690Z,15.12
2022-09-01T01:00:25.631Z,13.49
2022-09-01T01:02:30.842Z,14.69
2022-09-01T01:04:34.106Z,15.08
2022-09-01T01:06:37.216Z,15.08
2022-09-01T01:08:44.433Z,15.10
2022-09-01T01:10:47.322Z,13.05
2022-09-01T01:12:51.792Z,13.42
2022-09-01T01:14:55.029Z,15.00
2022-09-01T01:16:57.922Z,13.84
2022-09-01T01:19:02.449Z,14.94
2022-09-01T01:21:27.033Z,14.36
2022-09-01T01:23:37.238Z,15.04
2022-09-01T01:25:44.809Z,14.91
2022-09-01T01:27:50.399Z,14.89
2022-09-01T01:29:54.949Z,11.87
2022-09-01T01:31:58.206Z,14.67
2022-09-01T01:34:01.867Z,14.70
2022-09-01T01:36:07.928Z,14.69
2022-09-01T01:38:11.364Z,12.96
2022-09-01T01:40:16.419Z,14.53
2022-09-01T01:42:21.133Z,13.43
2022-09-01T01:44:28.397Z,14.29
2022-09-01T01:46:38.006Z,14.12
2022-09-01T01:48:43.773Z,13.31
2022-09-01T01:50:49.340Z,14.21
2022-09-01T01:52:53.164Z,14.15
2022-09-01T01:55:05.470Z,13.77
2022-09-01T01:57:08.670Z,13.52
2022-09-01T01:59:15.512Z,14.39
2022-09-01T02:01:22.253Z,14.34
2022-09-01T02:03:38.586Z,14.27
2022-09-01T02:05:42.135Z,14.39
2022-09-01T02:07:45.229Z,14.18
2022-09-01T02:09:48.322Z,14.27
2022-09-01T02:11:54.344Z,14.31
2022-09-01T02:13:58.251Z,14.28
2022-09-01T02:16:07.838Z,14.21
2022-09-01T02:18:13.451Z,13.17
2022-09-01T02:20:17.244Z,14.16
2022-09-01T02:22:21.678Z,14.14
2022-09-01T02:24:26.321Z,10.07
2022-09-01T02:26:32.239Z,9.88
2022-09-01T02:28:40.218Z,11.29
2022-09-01T02:30:43.527Z,14.38
2022-09-01T02:32:48.550Z,14.50
2022-09-01T02:34:53.934Z,13.63
2022-09-01T02:36:58.990Z,13.93
2022-09-01T02:39:01.962Z,11.70
2022-09-01T02:41:04.898Z,14.01
2022-09-01T02:43:08.457Z,13.55
2022-09-01T02:45:16.279Z,14.79
2022-09-01T02:47:20.461Z,13.08
2022-09-01T02:49:28.343Z,14.78
2022-09-01T02:51:31.476Z,14.85
2022-09-01T02:53:36.749Z,14.69
2022-09-01T02:55:41.006Z,14.29
2022-09-01T02:57:45.546Z,12.74
2022-09-01T02:59:48.660Z,14.72
2022-09-01T03:01:55.132Z,14.82
2022-09-01T03:04:00.267Z,13.06
2022-09-01T03:06:13.006Z,14.76
2022-09-01T03:08:16.952Z,14.78
2022-09-01T03:10:21.649Z,14.78
2022-09-01T03:12:28.274Z,14.85
2022-09-01T03:14:31.964Z,14.88
2022-09-01T03:16:35.679Z,14.90
2022-09-01T03:18:40.267Z,14.51
2022-09-01T03:20:46.561Z,14.41
2022-09-01T03:22:51.894Z,10.81
2022-09-01T03:24:57.832Z,14.04
2022-09-01T03:27:01.305Z,14.12
2022-09-01T03:29:05.388Z,14.15
2022-09-01T03:31:09.211Z,13.98
2022-09-01T03:33:12.615Z,9.41
2022-09-01T03:35:17.536Z,14.23
2022-09-01T03:37:20.936Z,13.98
2022-09-01T03:39:25.300Z,14.08
2022-09-01T03:41:30.935Z,14.13
2022-09-01T03:43:35.975Z,14.12
2022-09-01T03:45:41.623Z,14.17
2022-09-01T03:47:44.831Z,14.04
2022-09-01T03:49:49.204Z,12.56
2022-09-01T03:51:53.877Z,11.26
2022-09-01T03:53:57.650Z,14.07
2022-09-01T03:56:06.123Z,13.86
2022-09-01T03:58:25.473Z,13.80
2022-09-01T04:00:32.498Z,13.48
2022-09-01T04:02:35.618Z,8.07
2022-09-01T04:04:39.145Z,13.78
2022-09-01T04:06:43.366Z,13.77
2022-09-01T04:08:47.226Z,12.92
2022-09-01T04:10:54.391Z,11.85
2022-09-01T04:13:00.086Z,13.60
2022-09-01T04:15:03.337Z,13.64
2022-09-01T04:17:26.396Z,13.65
2022-09-01T04:19:37.008Z,13.64
2022-09-01T04:21:40.201Z,12.54
2022-09-01T04:23:43.109Z,10.42
2022-09-01T04:25:46.708Z,13.50
2022-09-01T04:27:50.330Z,12.34
2022-09-01T04:29:57.930Z,11.56
2022-09-01T04:32:09.741Z,9.89
2022-09-01T04:34:15.298Z,13.96
2022-09-01T04:36:23.540Z,13.79
2022-09-01T04:38:29.245Z,13.67
2022-09-01T04:40:32.259Z,13.86
2022-09-01T04:42:37.417Z,14.06
2022-09-01T04:44:40.580Z,14.20
2022-09-01T04:46:46.536Z,14.32
2022-09-01T04:48:53.705Z,14.48
2022-09-01T04:50:58.684Z,14.41
2022-09-01T04:53:06.807Z,14.36
2022-09-01T04:55:18.494Z,14.27
2022-09-01T04:57:21.742Z,14.09
2022-09-01T04:59:27.361Z,14.19
2022-09-01T05:01:43.321Z,13.77
2022-09-01T05:03:56.668Z,13.56
2022-09-01T05:06:20.867Z,13.56
2022-09-01T05:08:28.960Z,13.90
2022-09-01T05:10:41.909Z,12.77
2022-09-01T05:12:54.520Z,14.27
2022-09-01T05:14:57.846Z,13.15
2022-09-01T05:17:02.025Z,14.08
2022-09-01T05:19:06.605Z,13.86
2022-09-01T05:21:12.650Z,13.93
2022-09-01T05:23:19.471Z,14.14
2022-09-01T05:25:23.207Z,14.19
2022-09-01T05:27:26.840Z,14.18
2022-09-01T05:29:29.833Z,14.25
2022-09-01T05:31:37.943Z,14.52
2022-09-01T05:33:45.879Z,14.23
2022-09-01T05:35:55.781Z,14.58
2022-09-01T05:37:59.559Z,14.70
2022-09-01T05:40:02.859Z,14.79
2022-09-01T05:42:08.080Z,15.16
2022-09-01T05:44:15.633Z,14.52
2022-09-01T05:46:22.843Z,15.25
2022-09-01T05:48:26.311Z,12.93
2022-09-01T05:50:29.229Z,14.84
2022-09-01T05:52:37.512Z,15.15
2022-09-01T05:54:41.375Z,15.23
2022-09-01T05:56:45.071Z,15.24
2022-09-01T06:01:22.186Z,15.44
2022-09-01T06:03:27.717Z,15.52
2022-09-01T06:05:32.236Z,15.60
2022-09-01T06:07:38.088Z,15.75
2022-09-01T06:09:44.509Z,15.47
2022-09-01T06:11:48.350Z,13.62
2022-09-01T06:13:55.239Z,14.94
2022-09-01T06:15:59.255Z,15.84
2022-09-01T06:18:02.164Z,15.90
2022-09-01T06:20:10.932Z,16.02
2022-09-01T06:22:17.092Z,16.03
2022-09-01T06:24:21.372Z,15.83
2022-09-01T06:26:28.864Z,6.87
2022-09-01T06:28:34.960Z,16.18
2022-09-01T06:30:38.879Z,16.18
2022-09-01T06:32:46.503Z,16.23
2022-09-01T06:34:51.238Z,16.45
2022-09-01T06:36:54.151Z,16.52
2022-09-01T06:38:58.056Z,16.62
2022-09-01T06:41:04.180Z,16.16
2022-09-01T06:43:08.301Z,15.58
2022-09-01T06:45:14.979Z,16.60
2022-09-01T06:47:17.879Z,16.80
2022-09-01T06:49:21.478Z,16.89
2022-09-01T06:51:28.676Z,17.01
2022-09-01T06:53:45.043Z,16.59
2022-09-01T06:55:52.927Z,16.57
2022-09-01T06:58:06.683Z,17.28
2022-09-01T07:00:18.806Z,17.24
2022-09-01T07:02:26.532Z,17.36
2022-09-01T07:04:57.782Z,17.42
2022-09-01T07:10:05.880Z,17.40
2022-09-01T07:12:27.695Z,17.44
2022-09-01T07:14:33.130Z,17.50
2022-09-01T07:16:51.766Z,15.23
2022-09-01T07:19:00.334Z,17.57
2022-09-01T07:21:38.432Z,17.59
2022-09-01T07:23:46.222Z,17.67
2022-09-01T07:26:02.888Z,17.68
2022-09-01T07:28:09.761Z,17.61
2022-09-01T07:30:14.317Z,17.58
2022-09-01T07:34:41.410Z,17.08
2022-09-01T07:44:44.158Z,17.77
2022-09-01T07:47:20.255Z,17.67
2022-09-01T07:50:11.372Z,17.60
2022-09-01T07:52:03.828Z,17.99
2022-09-01T07:54:07.992Z,18.30
2022-09-01T07:56:12.712Z,18.45
2022-09-01T07:58:22.082Z,18.08
2022-09-01T08:00:31.169Z,18.51
2022-09-01T08:02:41.059Z,18.71
2022-09-01T08:04:44.971Z,18.48
2022-09-01T08:06:48.276Z,18.52
2022-09-01T08:08:56.928Z,18.41
2022-09-01T08:11:04.606Z,18.87
2022-09-01T08:13:07.917Z,18.93
2022-09-01T08:15:13.872Z,17.41
2022-09-01T08:17:53.196Z,18.85
2022-09-01T08:20:01.262Z,19.06
2022-09-01T08:22:24.258Z,18.77
2022-09-01T08:24:35.803Z,17.12
2022-09-01T08:26:38.769Z,18.45
2022-09-01T08:28:45.861Z,19.21
2022-09-01T08:30:52.542Z,19.20
2022-09-01T08:32:58.547Z,19.14
2022-09-01T08:35:07.546Z,19.70
2022-09-01T08:37:10.870Z,19.94
2022-09-01T08:39:15.283Z,20.23
2022-09-01T08:41:28.485Z,19.66
2022-09-01T08:43:47.784Z,19.51
2022-09-01T08:45:53.676Z,20.04
2022-09-01T08:50:26.705Z,20.07
2022-09-01T08:52:33.910Z,20.28
2022-09-01T08:54:45.778Z,20.82
2022-09-01T08:56:55.407Z,21.09
2022-09-01T08:59:18.973Z,21.41
2022-09-01T09:01:49.897Z,21.36
2022-09-01T09:04:05.893Z,21.54
2022-09-01T09:06:17.973Z,21.29
2022-09-01T09:08:43.984Z,21.60
2022-09-01T09:10:56.445Z,21.37
2022-09-01T09:13:13.443Z,21.53
2022-09-01T09:15:25.563Z,21.63
2022-09-01T09:17:34.530Z,21.03
2022-09-01T09:19:40.786Z,20.58
2022-09-01T09:21:48.218Z,21.82
2022-09-01T09:23:59.298Z,21.30
2022-09-01T09:26:02.323Z,21.09
2022-09-01T09:28:05.176Z,21.10
2022-09-01T09:30:11.834Z,21.17
2022-09-01T09:32:50.377Z,21.63
2022-09-01T09:34:40.286Z,21.87
2022-09-01T09:36:52.338Z,21.84
2022-09-01T09:39:10.592Z,21.45
2022-09-01T09:41:25.468Z,21.35
2022-09-01T09:43:31.434Z,21.83
2022-09-01T09:45:36.917Z,21.91
2022-09-01T09:47:44.653Z,21.82
2022-09-01T09:49:48.942Z,22.05
2022-09-01T09:51:58.787Z,21.85
2022-09-01T09:54:13.250Z,21.94
2022-09-01T09:56:20.927Z,21.88
2022-09-01T09:58:26.573Z,22.26
2022-09-01T10:00:34.006Z,22.41
2022-09-01T10:02:39.943Z,21.98
2022-09-01T10:04:42.794Z,22.24
2022-09-01T10:06:46.997Z,22.22
2022-09-01T10:08:51.337Z,22.13
2022-09-01T10:10:58.335Z,21.83
2022-09-01T10:13:02.775Z,22.06
2022-09-01T10:15:12.814Z,22.03
2022-09-01T10:17:20.593Z,22.73
2022-09-01T10:19:24.389Z,22.90
2022-09-01T10:21:32.929Z,22.67
2022-09-01T10:23:38.771Z,22.71
2022-09-01T10:25:47.627Z,22.90
2022-09-01T10:27:55.186Z,23.13
2022-09-01T10:30:14.031Z,22.99
2022-09-01T10:32:35.143Z,21.86
2022-09-01T10:34:42.115Z,22.38
2022-09-01T10:36:56.054Z,23.52
2022-09-01T10:39:04.811Z,23.53
2022-09-01T10:41:14.899Z,23.64
2022-09-01T10:43:37.995Z,23.76
2022-09-01T10:45:41.148Z,22.25
2022-09-01T10:47:44.471Z,22.75
2022-09-01T10:50:07.849Z,23.24
2022-09-01T10:52:14.180Z,22.74
2022-09-01T10:54:55.561Z,23.18
2022-09-01T10:57:08.817Z,22.90
2022-09-01T10:59:32.834Z,23.10
2022-09-01T11:05:10.741Z,23.80
2022-09-01T11:07:50.645Z,23.26
2022-09-01T11:10:35.357Z,23.15
2022-09-01T11:12:49.060Z,23.70
2022-09-01T11:14:54.968Z,23.84
2022-09-01T11:17:15.613Z,23.69
2022-09-01T11:19:45.096Z,24.64
2022-09-01T11:21:48.643Z,24.25
2022-09-01T11:23:52.735Z,23.27
2022-09-01T11:28:47.800Z,24.75
2022-09-01T11:30:55.322Z,25.19
2022-09-01T11:33:02.806Z,25.67
2022-09-01T11:35:14.295Z,26.09
2022-09-01T11:37:20.640Z,25.76
2022-09-01T11:39:33.000Z,24.53
2022-09-01T11:41:49.770Z,26.14
2022-09-01T11:44:01.729Z,26.41
2022-09-01T11:46:15.140Z,26.49
2022-09-01T11:48:18.547Z,26.52
2022-09-01T11:50:24.715Z,26.42
2022-09-01T11:52:32.193Z,26.22
2022-09-01T11:54:42.599Z,25.90
2022-09-01T11:56:45.558Z,27.07
2022-09-01T11:58:48.907Z,26.96
2022-09-01T12:00:53.129Z,27.56
2022-09-01T12:02:56.383Z,27.82
2022-09-01T12:04:59.380Z,27.61
2022-09-01T12:07:07.596Z,27.14
2022-09-01T12:09:13.936Z,26.98
2022-09-01T12:11:21.619Z,27.01
2022-09-01T12:13:25.791Z,24.23
2022-09-01T12:15:28.957Z,27.52
2022-09-01T12:17:33.096Z,27.31
2022-09-01T12:19:38.577Z,27.57
2022-09-01T12:21:44.066Z,28.22
2022-09-01T12:23:47.609Z,28.64
2022-09-01T12:25:51.008Z,28.69
2022-09-01T12:27:55.276Z,28.94
2022-09-01T12:29:58.843Z,29.05
2022-09-01T12:32:02.660Z,29.07
2022-09-01T12:34:24.325Z,29.53
2022-09-01T12:36:29.095Z,28.76
2022-09-01T12:38:31.957Z,27.93
2022-09-01T12:40:36.951Z,27.58
2022-09-01T12:42:51.841Z,28.07
2022-09-01T12:44:57.469Z,28.74
2022-09-01T12:47:03.219Z,28.68
2022-09-01T12:49:19.727Z,27.90
2022-09-01T12:51:30.856Z,28.02
2022-09-01T12:53:37.194Z,27.47
2022-09-01T12:55:47.843Z,27.82
2022-09-01T12:57:54.022Z,27.96
2022-09-01T13:00:24.474Z,28.04
2022-09-01T13:02:37.399Z,27.63
2022-09-01T13:04:42.059Z,27.27
2022-09-01T13:06:44.896Z,27.09
2022-09-01T13:08:47.820Z,26.87
2022-09-01T13:10:53.315Z,26.39
2022-09-01T13:12:57.906Z,25.87
2022-09-01T13:15:00.764Z,25.71
2022-09-01T13:17:04.244Z,26.09
2022-09-01T13:19:11.215Z,27.10
2022-09-01T13:21:16.641Z,27.75
2022-09-01T13:23:20.132Z,28.03
2022-09-01T13:25:24.710Z,28.52
2022-09-01T13:27:28.259Z,29.15
2022-09-01T13:29:31.365Z,28.89
2022-09-01T13:31:35.682Z,28.75
2022-09-01T13:36:42.746Z,29.15
2022-09-01T13:38:26.618Z,29.65
2022-09-01T13:40:29.493Z,30.20
2022-09-01T13:42:33.326Z,30.15
2022-09-01T13:44:36.826Z,30.31
2022-09-01T13:49:03.602Z,30.80
2022-09-01T13:51:16.842Z,30.82
2022-09-01T13:53:21.602Z,30.99
2022-09-01T13:55:27.282Z,31.11
2022-09-01T13:57:32.820Z,31.11
2022-09-01T13:59:39.543Z,30.91
2022-09-01T14:01:42.882Z,31.11
2022-09-01T14:03:50.056Z,30.80
2022-09-01T14:05:54.854Z,30.63
2022-09-01T14:07:58.743Z,31.17
2022-09-01T14:10:01.600Z,31.09
2022-09-01T14:12:06.433Z,30.48
2022-09-01T14:14:09.254Z,30.74
2022-09-01T14:16:13.013Z,27.75
2022-09-01T14:18:16.963Z,31.46
2022-09-01T14:20:21.901Z,31.60
2022-09-01T14:22:24.844Z,31.12
2022-09-01T14:24:28.037Z,32.07
2022-09-01T14:26:30.874Z,31.88
2022-09-01T14:28:35.139Z,32.16
2022-09-01T14:30:38.142Z,29.30
2022-09-01T14:32:40.999Z,31.03
2022-09-01T14:34:43.875Z,30.39
2022-09-01T14:36:47.557Z,30.42
2022-09-01T14:38:51.179Z,30.04
2022-09-01T14:40:54.057Z,29.71
2022-09-01T14:42:57.732Z,29.65
2022-09-01T14:45:03.165Z,29.96
2022-09-01T14:47:07.074Z,29.58
2022-09-01T14:49:21.667Z,30.53
2022-09-01T14:52:10.469Z,30.86
2022-09-01T14:53:51.073Z,30.92
2022-09-01T14:55:56.332Z,30.44
2022-09-01T14:58:00.415Z,30.26
2022-09-01T15:00:06.249Z,30.40
2022-09-01T15:02:09.748Z,30.23
2022-09-01T15:04:12.599Z,29.44
2022-09-01T15:06:16.619Z,29.76
2022-09-01T15:08:20.008Z,29.67
2022-09-01T15:10:26.201Z,29.81
2022-09-01T15:12:30.896Z,29.76
2022-09-01T15:14:34.325Z,29.47
2022-09-01T15:16:41.515Z,30.79
2022-09-01T15:18:44.434Z,31.03
2022-09-01T15:20:46.266Z,31.21
2022-09-01T15:22:49.554Z,31.54
2022-09-01T15:24:52.262Z,31.37
2022-09-01T15:26:55.088Z,31.37
2022-09-01T15:28:58.352Z,30.84
2022-09-01T15:31:01.546Z,30.20
2022-09-01T15:33:05.902Z,29.44
2022-09-01T15:35:09.671Z,28.42
2022-09-01T15:37:12.518Z,28.29
2022-09-01T15:39:15.377Z,27.91
2022-09-01T15:41:18.830Z,27.89
2022-09-01T15:43:22.208Z,28.49
2022-09-01T15:45:26.631Z,28.81
2022-09-01T15:47:30.669Z,29.33
2022-09-01T15:49:34.866Z,29.43
2022-09-01T15:51:38.926Z,29.71
2022-09-01T15:53:41.748Z,29.59
2022-09-01T15:55:46.925Z,28.79
2022-09-01T15:57:50.718Z,30.01
2022-09-01T15:59:53.621Z,30.04
2022-09-01T16:01:57.455Z,30.00
2022-09-01T16:04:01.134Z,30.30
2022-09-01T16:06:05.431Z,30.72
2022-09-01T16:08:09.984Z,30.63
2022-09-01T16:10:13.781Z,30.86
2022-09-01T16:12:16.866Z,30.82
2022-09-01T16:14:20.709Z,31.00
2022-09-01T16:16:42.455Z,30.95
2022-09-01T16:18:55.370Z,31.19
2022-09-01T16:21:04.739Z,30.94
2022-09-01T16:23:15.188Z,30.92
2022-09-01T16:25:26.325Z,30.50
2022-09-01T16:27:34.301Z,29.75
2022-09-01T16:29:45.500Z,29.77
2022-09-01T16:31:52.469Z,29.93
2022-09-01T16:33:57.163Z,30.03
2022-09-01T16:36:11.089Z,30.21
2022-09-01T16:38:18.243Z,30.51
2022-09-01T16:40:39.572Z,30.39
2022-09-01T16:42:50.689Z,30.68
2022-09-01T16:45:12.008Z,30.70
2022-09-01T16:47:33.432Z,30.79
2022-09-01T16:49:43.994Z,30.80
2022-09-01T16:51:53.760Z,30.74
2022-09-01T16:54:10.282Z,30.89
2022-09-01T16:56:19.166Z,30.74
2022-09-01T16:58:29.315Z,31.36
2022-09-01T17:00:45.205Z,31.41
2022-09-01T17:02:59.755Z,31.09
2022-09-01T17:05:10.785Z,30.59
2022-09-01T17:07:16.409Z,30.16
2022-09-01T17:09:26.723Z,29.09
2022-09-01T17:11:37.338Z,28.40
2022-09-01T17:13:43.909Z,27.74
2022-09-01T17:15:53.723Z,26.66
2022-09-01T17:18:06.232Z,27.45
2022-09-01T17:20:10.021Z,27.21
2022-09-01T17:22:15.571Z,27.00
2022-09-01T17:24:31.908Z,26.19
2022-09-01T17:26:36.108Z,26.20
2022-09-01T17:28:43.907Z,25.82
2022-09-01T17:30:52.410Z,25.65
2022-09-01T17:33:17.266Z,25.28
2022-09-01T17:35:26.149Z,24.92
2022-09-01T17:37:40.043Z,24.76
2022-09-01T17:39:50.634Z,24.46
2022-09-01T17:41:57.876Z,24.18
2022-09-01T17:44:16.620Z,24.02
2022-09-01T17:46:31.235Z,23.70
2022-09-01T17:48:43.241Z,23.60
2022-09-01T17:51:01.612Z,23.52
2022-09-01T17:53:11.394Z,23.25
2022-09-01T17:55:25.683Z,23.24
2022-09-01T17:57:38.781Z,22.37
2022-09-01T17:59:50.017Z,23.06
2022-09-01T18:02:03.505Z,22.90
2022-09-01T18:04:35.601Z,22.73
2022-09-01T18:06:46.756Z,22.62
2022-09-01T18:08:53.963Z,22.49
2022-09-01T18:11:01.068Z,22.43
2022-09-01T18:13:08.528Z,22.31
2022-09-01T18:15:14.643Z,21.98
2022-09-01T18:17:26.364Z,22.02
2022-09-01T18:19:37.068Z,21.98
2022-09-01T18:21:49.261Z,21.52
2022-09-01T18:23:56.129Z,21.54
2022-09-01T18:26:09.562Z,21.63
2022-09-01T18:28:14.416Z,20.74
2022-09-01T18:30:30.940Z,21.46
2022-09-01T18:32:43.937Z,21.39
2022-09-01T18:35:03.893Z,19.81
2022-09-01T18:37:13.702Z,20.95
2022-09-01T18:39:23.557Z,20.80
2022-09-01T18:41:38.639Z,20.58
2022-09-01T18:43:45.941Z,20.73
2022-09-01T18:45:54.022Z,18.50
2022-09-01T18:48:05.239Z,20.15
2022-09-01T18:50:14.598Z,20.13
2022-09-01T18:52:33.072Z,20.12
2022-09-01T18:54:41.891Z,20.24
2022-09-01T18:56:53.034Z,20.12
2022-09-01T18:59:11.671Z,18.56
2022-09-01T19:01:17.450Z,20.18
2022-09-01T19:03:30.120Z,20.32
2022-09-01T19:05:47.245Z,20.23
2022-09-01T19:07:56.992Z,19.59
2022-09-01T19:10:07.942Z,19.59
2022-09-01T19:12:24.998Z,19.77
2022-09-01T19:14:34.698Z,19.68
2022-09-01T19:16:49.706Z,19.64
2022-09-01T19:19:00.767Z,19.79
2022-09-01T19:21:07.949Z,19.86
2022-09-01T19:23:16.048Z,19.87
2022-09-01T19:25:36.686Z,17.45
2022-09-01T19:27:41.287Z,19.56
2022-09-01T19:29:48.260Z,19.11
2022-09-01T19:31:57.580Z,19.02
2022-09-01T19:34:03.425Z,18.10
2022-09-01T19:36:10.307Z,19.31
2022-09-01T19:38:20.398Z,16.86
2022-09-01T19:40:31.072Z,19.36
2022-09-01T19:42:43.603Z,19.16
2022-09-01T19:44:55.017Z,19.03
2022-09-01T19:47:04.012Z,19.05
2022-09-01T19:49:18.645Z,19.17
2022-09-01T19:51:29.123Z,19.16
2022-09-01T19:53:41.560Z,19.19
2022-09-01T19:55:51.938Z,19.12
2022-09-01T19:57:58.437Z,19.09
2022-09-01T20:00:07.927Z,19.07
2022-09-01T20:02:21.053Z,19.04
2022-09-01T20:04:32.477Z,19.02
2022-09-01T20:06:37.104Z,18.94
2022-09-01T20:08:44.863Z,18.93
2022-09-01T20:10:58.813Z,18.88
2022-09-01T20:13:22.237Z,18.86
2022-09-01T20:15:33.117Z,18.37
2022-09-01T20:17:42.073Z,18.75
2022-09-01T20:19:49.098Z,17.58
2022-09-01T20:21:52.136Z,17.26
2022-09-01T20:24:01.805Z,14.87
2022-09-01T20:26:15.279Z,16.50
2022-09-01T20:28:27.274Z,18.28
2022-09-01T20:30:39.928Z,18.18
2022-09-01T20:32:55.181Z,12.90
2022-09-01T20:35:04.948Z,16.77
2022-09-01T20:37:14.922Z,17.88
2022-09-01T20:39:42.828Z,17.61
2022-09-01T20:41:50.540Z,17.56
2022-09-01T20:43:57.468Z,17.52
2022-09-01T20:46:00.449Z,17.49
2022-09-01T20:48:06.598Z,17.55
2022-09-01T20:50:12.929Z,17.46
2022-09-01T20:52:21.120Z,16.60
2022-09-01T20:54:31.031Z,16.44
2022-09-01T20:56:45.780Z,17.49
2022-09-01T20:58:58.501Z,17.72
2022-09-01T21:01:18.206Z,17.82
2022-09-01T21:03:34.226Z,16.20
2022-09-01T21:05:46.877Z,17.87
2022-09-01T21:08:02.259Z,17.87
2022-09-01T21:10:14.788Z,17.48
2022-09-01T21:12:28.581Z,17.85
2022-09-01T21:14:45.353Z,17.84
2022-09-01T21:16:58.493Z,17.79
2022-09-01T21:19:08.359Z,17.78
2022-09-01T21:21:22.751Z,16.56
2022-09-01T21:23:26.564Z,17.74
2022-09-01T21:25:29.502Z,17.00
2022-09-01T21:27:45.094Z,17.32
2022-09-01T21:29:58.422Z,17.68
2022-09-01T21:32:02.088Z,16.02
2022-09-01T21:34:05.165Z,17.08
2022-09-01T21:36:08.909Z,17.37
2022-09-01T21:38:11.910Z,16.77
2022-09-01T21:40:16.145Z,17.21
2022-09-01T21:42:20.630Z,14.54
2022-09-01T21:44:23.913Z,17.37
2022-09-01T21:46:28.626Z,17.39
2022-09-01T21:48:32.067Z,16.30
2022-09-01T21:50:35.203Z,17.16
2022-09-01T21:52:38.108Z,15.81
2022-09-01T21:54:41.023Z,15.45
2022-09-01T21:56:44.017Z,17.19
2022-09-01T21:58:49.864Z,17.13
2022-09-01T22:00:53.110Z,17.17
2022-09-01T22:02:59.499Z,15.27
2022-09-01T22:05:05.965Z,17.10
2022-09-01T22:07:19.119Z,16.85
2022-09-01T22:09:23.272Z,16.88
2022-09-01T22:11:26.352Z,16.95
2022-09-01T22:13:29.406Z,16.83
2022-09-01T22:15:32.759Z,16.93
2022-09-01T22:17:35.645Z,16.81
2022-09-01T22:19:40.054Z,15.55
2022-09-01T22:21:44.086Z,16.59
2022-09-01T22:23:47.184Z,15.41
2022-09-01T22:25:50.214Z,16.65
2022-09-01T22:27:53.161Z,16.50
2022-09-01T22:29:56.020Z,16.27
2022-09-01T22:32:00.493Z,16.28
2022-09-01T22:34:03.433Z,12.87
2022-09-01T22:36:08.505Z,14.65
2022-09-01T22:38:11.517Z,16.24
2022-09-01T22:40:15.991Z,16.21
2022-09-01T22:42:18.860Z,16.08
2022-09-01T22:44:22.015Z,16.11
2022-09-01T22:46:24.938Z,16.17
2022-09-01T22:48:28.827Z,12.82
2022-09-01T22:50:31.649Z,16.17
2022-09-01T22:52:36.582Z,15.94
2022-09-01T22:54:39.962Z,11.19
2022-09-01T22:56:45.236Z,16.17
2022-09-01T22:58:49.030Z,11.64
2022-09-01T23:00:54.348Z,14.55
2022-09-01T23:02:58.949Z,15.82
2022-09-01T23:05:06.028Z,15.74
2022-09-01T23:07:10.199Z,15.57
2022-09-01T23:09:15.817Z,10.24
2022-09-01T23:11:18.704Z,15.31
2022-09-01T23:13:21.777Z,16.33
2022-09-01T23:15:25.018Z,15.95
2022-09-01T23:17:28.140Z,16.28
2022-09-01T23:19:31.216Z,16.21
2022-09-01T23:21:36.231Z,16.19
2022-09-01T23:23:39.993Z,16.19
2022-09-01T23:25:49.370Z,10.86
2022-09-01T23:27:54.615Z,16.03
2022-09-01T23:29:59.166Z,13.19
2022-09-01T23:32:02.341Z,14.11
2022-09-01T23:34:07.384Z,16.10
2022-09-01T23:36:13.356Z,16.08
2022-09-01T23:38:18.143Z,15.69
2022-09-01T23:40:21.800Z,13.63
2022-09-01T23:42:26.522Z,14.99
2022-09-01T23:44:30.207Z,13.75
2022-09-01T23:46:37.313Z,15.54
2022-09-01T23:48:40.264Z,15.60
2022-09-01T23:50:43.389Z,9.35
2022-09-01T23:52:46.434Z,14.51
2022-09-01T23:54:49.387Z,14.27
2022-09-01T23:56:52.545Z,14.82
2022-09-01T23:58:57.260Z,15.39
